sensor_id;sensor_type;location;lat;lon;timestamp;P1;durP1;ratioP1;P2;durP2;ratioP2
23280;SDS011;11809;56.390;-3.266;2023-11-19T00:02:11;1.58;;;1.48;;
23280;SDS011;11809;56.390;-3.266;2023-11-19T00:04:42;1.83;;;1.65;;
23280;SDS011;11809;56.390;-3.266;2023-11-19T00:07:13;1.60;;;1.50;;
23280;SDS011;11809;56.390;-3.266;2023-11-19T00:09:46;1.90;;;1.77;;
23280;SDS011;11809;56.390;-3.266;2023-11-19T00:14:51;1.60;;;1.50;;
23280;SDS011;11809;56.390;-3.266;2023-11-19T00:17:22;1.70;;;1.60;;
23280;SDS011;11809;56.390;-3.266;2023-11-19T00:19:52;1.70;;;1.60;;
23280;SDS011;11809;56.390;-3.266;2023-11-19T00:22:23;1.90;;;1.80;;
23280;SDS011;11809;56.390;-3.266;2023-11-19T00:27:28;1.60;;;1.50;;
23280;SDS011;11809;56.390;-3.266;2023-11-19T00:29:58;1.65;;;1.55;;
23280;SDS011;11809;56.390;-3.266;2023-11-19T00:32:32;1.65;;;1.55;;
23280;SDS011;11809;56.390;-3.266;2023-11-19T00:35:03;1.70;;;1.60;;
23280;SDS011;11809;56.390;-3.266;2023-11-19T00:37:35;1.73;;;1.50;;
23280;SDS011;11809;56.390;-3.266;2023-11-19T00:40:06;1.80;;;1.58;;
23280;SDS011;11809;56.390;-3.266;2023-11-19T00:42:41;1.80;;;1.70;;
23280;SDS011;11809;56.390;-3.266;2023-11-19T00:45:11;2.13;;;1.60;;
23280;SDS011;11809;56.390;-3.266;2023-11-19T00:47:42;1.70;;;1.60;;
23280;SDS011;11809;56.390;-3.266;2023-11-19T00:50:13;1.67;;;1.55;;
23280;SDS011;11809;56.390;-3.266;2023-11-19T00:52:44;1.65;;;1.55;;
23280;SDS011;11809;56.390;-3.266;2023-11-19T00:55:15;1.73;;;1.63;;
23280;SDS011;11809;56.390;-3.266;2023-11-19T00:57:48;1.73;;;1.55;;
23280;SDS011;11809;56.390;-3.266;2023-11-19T01:00:19;1.67;;;1.58;;
23280;SDS011;11809;56.390;-3.266;2023-11-19T01:02:54;1.58;;;1.48;;
23280;SDS011;11809;56.390;-3.266;2023-11-19T01:05:25;1.75;;;1.60;;
23280;SDS011;11809;56.390;-3.266;2023-11-19T01:07:55;1.58;;;1.48;;
23280;SDS011;11809;56.390;-3.266;2023-11-19T01:10:26;1.77;;;1.67;;
23280;SDS011;11809;56.390;-3.266;2023-11-19T01:12:59;1.42;;;1.20;;
23280;SDS011;11809;56.390;-3.266;2023-11-19T01:15:32;1.40;;;1.30;;
23280;SDS011;11809;56.390;-3.266;2023-11-19T01:18:03;2.05;;;1.33;;
23280;SDS011;11809;56.390;-3.266;2023-11-19T01:20:36;1.98;;;1.40;;
23280;SDS011;11809;56.390;-3.266;2023-11-19T01:23:07;1.70;;;1.17;;
23280;SDS011;11809;56.390;-3.266;2023-11-19T01:25:37;1.45;;;1.20;;
23280;SDS011;11809;56.390;-3.266;2023-11-19T01:28:11;1.38;;;1.05;;
23280;SDS011;11809;56.390;-3.266;2023-11-19T01:30:41;1.08;;;1.00;;
23280;SDS011;11809;56.390;-3.266;2023-11-19T01:33:12;1.33;;;1.13;;
23280;SDS011;11809;56.390;-3.266;2023-11-19T01:35:42;1.38;;;1.10;;
23280;SDS011;11809;56.390;-3.266;2023-11-19T01:40:44;0.95;;;0.93;;
23280;SDS011;11809;56.390;-3.266;2023-11-19T01:46:08;1.10;;;1.00;;
23280;SDS011;11809;56.390;-3.266;2023-11-19T01:48:41;1.60;;;0.80;;
23280;SDS011;11809;56.390;-3.266;2023-11-19T01:51:14;0.90;;;0.70;;
23280;SDS011;11809;56.390;-3.266;2023-11-19T01:53:46;1.13;;;1.02;;
23280;SDS011;11809;56.390;-3.266;2023-11-19T01:56:19;1.00;;;0.90;;
23280;SDS011;11809;56.390;-3.266;2023-11-19T01:58:54;0.90;;;0.65;;
23280;SDS011;11809;56.390;-3.266;2023-11-19T02:01:25;1.08;;;0.90;;
23280;SDS011;11809;56.390;-3.266;2023-11-19T02:03:56;0.70;;;0.60;;
23280;SDS011;11809;56.390;-3.266;2023-11-19T02:06:28;2.58;;;0.80;;
23280;SDS011;11809;56.390;-3.266;2023-11-19T02:09:00;1.42;;;0.73;;
23280;SDS011;11809;56.390;-3.266;2023-11-19T02:11:34;0.80;;;0.73;;
23280;SDS011;11809;56.390;-3.266;2023-11-19T02:16:38;0.75;;;0.50;;
23280;SDS011;11809;56.390;-3.266;2023-11-19T02:19:09;1.48;;;0.50;;
23280;SDS011;11809;56.390;-3.266;2023-11-19T02:21:40;0.63;;;0.63;;
23280;SDS011;11809;56.390;-3.266;2023-11-19T02:24:11;1.85;;;0.50;;
23280;SDS011;11809;56.390;-3.266;2023-11-19T02:26:45;1.00;;;0.60;;
23280;SDS011;11809;56.390;-3.266;2023-11-19T02:29:25;0.60;;;0.57;;
23280;SDS011;11809;56.390;-3.266;2023-11-19T02:31:56;0.50;;;0.50;;
23280;SDS011;11809;56.390;-3.266;2023-11-19T02:34:26;0.70;;;0.40;;
23280;SDS011;11809;56.390;-3.266;2023-11-19T02:36:57;0.93;;;0.60;;
23280;SDS011;11809;56.390;-3.266;2023-11-19T02:39:28;0.50;;;0.50;;
23280;SDS011;11809;56.390;-3.266;2023-11-19T02:41:58;0.65;;;0.50;;
23280;SDS011;11809;56.390;-3.266;2023-11-19T02:44:31;0.50;;;0.40;;
23280;SDS011;11809;56.390;-3.266;2023-11-19T02:47:02;0.52;;;0.40;;
23280;SDS011;11809;56.390;-3.266;2023-11-19T02:49:34;0.70;;;0.60;;
23280;SDS011;11809;56.390;-3.266;2023-11-19T02:52:05;1.08;;;0.52;;
23280;SDS011;11809;56.390;-3.266;2023-11-19T02:54:37;1.52;;;0.50;;
23280;SDS011;11809;56.390;-3.266;2023-11-19T02:57:08;0.52;;;0.43;;
23280;SDS011;11809;56.390;-3.266;2023-11-19T02:59:45;0.40;;;0.40;;
23280;SDS011;11809;56.390;-3.266;2023-11-19T03:02:15;0.50;;;0.47;;
23280;SDS011;11809;56.390;-3.266;2023-11-19T03:04:46;1.15;;;0.47;;
23280;SDS011;11809;56.390;-3.266;2023-11-19T03:07:14;0.40;;;0.30;;
23280;SDS011;11809;56.390;-3.266;2023-11-19T03:09:44;1.15;;;0.52;;
23280;SDS011;11809;56.390;-3.266;2023-11-19T03:12:16;0.60;;;0.50;;
23280;SDS011;11809;56.390;-3.266;2023-11-19T03:14:49;0.50;;;0.43;;
23280;SDS011;11809;56.390;-3.266;2023-11-19T03:17:19;0.70;;;0.40;;
23280;SDS011;11809;56.390;-3.266;2023-11-19T03:19:51;0.63;;;0.40;;
23280;SDS011;11809;56.390;-3.266;2023-11-19T03:22:21;0.85;;;0.40;;
23280;SDS011;11809;56.390;-3.266;2023-11-19T03:24:51;1.30;;;0.47;;
23280;SDS011;11809;56.390;-3.266;2023-11-19T03:27:22;0.37;;;0.30;;
23280;SDS011;11809;56.390;-3.266;2023-11-19T03:29:55;0.50;;;0.50;;
23280;SDS011;11809;56.390;-3.266;2023-11-19T03:32:25;1.20;;;0.30;;
23280;SDS011;11809;56.390;-3.266;2023-11-19T03:34:56;0.47;;;0.40;;
23280;SDS011;11809;56.390;-3.266;2023-11-19T03:37:26;0.70;;;0.50;;
23280;SDS011;11809;56.390;-3.266;2023-11-19T03:39:57;0.70;;;0.40;;
23280;SDS011;11809;56.390;-3.266;2023-11-19T03:42:28;0.60;;;0.40;;
23280;SDS011;11809;56.390;-3.266;2023-11-19T03:45:02;0.80;;;0.40;;
23280;SDS011;11809;56.390;-3.266;2023-11-19T03:47:35;0.47;;;0.40;;
23280;SDS011;11809;56.390;-3.266;2023-11-19T03:50:06;0.98;;;0.45;;
23280;SDS011;11809;56.390;-3.266;2023-11-19T03:52:37;1.13;;;0.50;;
23280;SDS011;11809;56.390;-3.266;2023-11-19T03:55:10;0.65;;;0.45;;
23280;SDS011;11809;56.390;-3.266;2023-11-19T03:57:40;0.90;;;0.50;;
23280;SDS011;11809;56.390;-3.266;2023-11-19T04:00:14;0.75;;;0.40;;
23280;SDS011;11809;56.390;-3.266;2023-11-19T04:02:44;0.40;;;0.40;;
23280;SDS011;11809;56.390;-3.266;2023-11-19T04:05:15;0.40;;;0.33;;
23280;SDS011;11809;56.390;-3.266;2023-11-19T04:07:45;0.52;;;0.40;;
23280;SDS011;11809;56.390;-3.266;2023-11-19T04:10:16;0.30;;;0.30;;
23280;SDS011;11809;56.390;-3.266;2023-11-19T04:12:47;0.47;;;0.30;;
23280;SDS011;11809;56.390;-3.266;2023-11-19T04:15:20;0.57;;;0.40;;
23280;SDS011;11809;56.390;-3.266;2023-11-19T04:17:50;0.52;;;0.45;;
23280;SDS011;11809;56.390;-3.266;2023-11-19T04:20:21;2.13;;;0.40;;
23280;SDS011;11809;56.390;-3.266;2023-11-19T04:22:51;0.80;;;0.30;;
23280;SDS011;11809;56.390;-3.266;2023-11-19T04:25:22;0.57;;;0.40;;
23280;SDS011;11809;56.390;-3.266;2023-11-19T04:27:53;0.98;;;0.57;;
23280;SDS011;11809;56.390;-3.266;2023-11-19T04:30:26;0.50;;;0.40;;
23280;SDS011;11809;56.390;-3.266;2023-11-19T04:32:58;0.70;;;0.38;;
23280;SDS011;11809;56.390;-3.266;2023-11-19T04:35:29;0.63;;;0.50;;
23280;SDS011;11809;56.390;-3.266;2023-11-19T04:37:59;0.90;;;0.40;;
23280;SDS011;11809;56.390;-3.266;2023-11-19T04:40:29;0.77;;;0.40;;
23280;SDS011;11809;56.390;-3.266;2023-11-19T04:43:00;1.10;;;0.50;;
23280;SDS011;11809;56.390;-3.266;2023-11-19T04:45:33;0.98;;;0.40;;
23280;SDS011;11809;56.390;-3.266;2023-11-19T04:48:04;1.20;;;0.40;;
23280;SDS011;11809;56.390;-3.266;2023-11-19T04:50:35;0.60;;;0.40;;
23280;SDS011;11809;56.390;-3.266;2023-11-19T04:53:06;0.35;;;0.30;;
23280;SDS011;11809;56.390;-3.266;2023-11-19T04:55:37;1.33;;;0.40;;
23280;SDS011;11809;56.390;-3.266;2023-11-19T04:58:07;0.82;;;0.30;;
23280;SDS011;11809;56.390;-3.266;2023-11-19T05:00:40;1.17;;;0.50;;
23280;SDS011;11809;56.390;-3.266;2023-11-19T05:03:10;1.05;;;0.40;;
23280;SDS011;11809;56.390;-3.266;2023-11-19T05:05:41;1.08;;;0.50;;
23280;SDS011;11809;56.390;-3.266;2023-11-19T05:08:11;0.43;;;0.30;;
23280;SDS011;11809;56.390;-3.266;2023-11-19T05:10:41;0.93;;;0.40;;
23280;SDS011;11809;56.390;-3.266;2023-11-19T05:13:11;0.77;;;0.40;;
23280;SDS011;11809;56.390;-3.266;2023-11-19T05:15:44;1.17;;;0.40;;
23280;SDS011;11809;56.390;-3.266;2023-11-19T05:18:15;0.68;;;0.40;;
23280;SDS011;11809;56.390;-3.266;2023-11-19T05:20:45;0.52;;;0.40;;
23280;SDS011;11809;56.390;-3.266;2023-11-19T05:23:15;1.40;;;0.40;;
23280;SDS011;11809;56.390;-3.266;2023-11-19T05:25:47;0.70;;;0.40;;
23280;SDS011;11809;56.390;-3.266;2023-11-19T05:28:17;1.05;;;0.45;;
23280;SDS011;11809;56.390;-3.266;2023-11-19T05:30:50;1.17;;;0.40;;
23280;SDS011;11809;56.390;-3.266;2023-11-19T05:33:21;0.77;;;0.40;;
23280;SDS011;11809;56.390;-3.266;2023-11-19T05:35:51;0.68;;;0.40;;
23280;SDS011;11809;56.390;-3.266;2023-11-19T05:38:21;0.83;;;0.33;;
23280;SDS011;11809;56.390;-3.266;2023-11-19T05:40:52;1.63;;;0.37;;
23280;SDS011;11809;56.390;-3.266;2023-11-19T05:43:22;0.57;;;0.30;;
23280;SDS011;11809;56.390;-3.266;2023-11-19T05:45:55;0.70;;;0.30;;
23280;SDS011;11809;56.390;-3.266;2023-11-19T05:48:26;0.40;;;0.30;;
23280;SDS011;11809;56.390;-3.266;2023-11-19T05:50:56;0.77;;;0.40;;
23280;SDS011;11809;56.390;-3.266;2023-11-19T05:53:27;0.85;;;0.40;;
23280;SDS011;11809;56.390;-3.266;2023-11-19T05:55:57;0.60;;;0.50;;
23280;SDS011;11809;56.390;-3.266;2023-11-19T05:58:30;1.00;;;0.40;;
23280;SDS011;11809;56.390;-3.266;2023-11-19T06:01:03;0.70;;;0.47;;
23280;SDS011;11809;56.390;-3.266;2023-11-19T06:03:35;0.65;;;0.40;;
23280;SDS011;11809;56.390;-3.266;2023-11-19T06:06:06;0.73;;;0.38;;
23280;SDS011;11809;56.390;-3.266;2023-11-19T06:08:38;0.77;;;0.30;;
23280;SDS011;11809;56.390;-3.266;2023-11-19T06:11:09;0.47;;;0.30;;
23280;SDS011;11809;56.390;-3.266;2023-11-19T06:13:45;0.90;;;0.50;;
23280;SDS011;11809;56.390;-3.266;2023-11-19T06:16:20;0.60;;;0.30;;
23280;SDS011;11809;56.390;-3.266;2023-11-19T06:18:51;0.60;;;0.40;;
23280;SDS011;11809;56.390;-3.266;2023-11-19T06:21:21;1.05;;;0.40;;
23280;SDS011;11809;56.390;-3.266;2023-11-19T06:23:52;0.65;;;0.30;;
23280;SDS011;11809;56.390;-3.266;2023-11-19T06:26:22;0.50;;;0.40;;
23280;SDS011;11809;56.390;-3.266;2023-11-19T06:28:53;0.38;;;0.30;;
23280;SDS011;11809;56.390;-3.266;2023-11-19T06:31:26;0.57;;;0.30;;
23280;SDS011;11809;56.390;-3.266;2023-11-19T06:33:56;2.08;;;0.43;;
23280;SDS011;11809;56.390;-3.266;2023-11-19T06:36:26;0.80;;;0.50;;
23280;SDS011;11809;56.390;-3.266;2023-11-19T06:38:57;0.60;;;0.40;;
23280;SDS011;11809;56.390;-3.266;2023-11-19T06:41:27;0.50;;;0.30;;
23280;SDS011;11809;56.390;-3.266;2023-11-19T06:43:58;0.75;;;0.50;;
23280;SDS011;11809;56.390;-3.266;2023-11-19T06:46:31;0.77;;;0.40;;
23280;SDS011;11809;56.390;-3.266;2023-11-19T06:49:02;0.40;;;0.30;;
23280;SDS011;11809;56.390;-3.266;2023-11-19T06:51:34;0.40;;;0.30;;
23280;SDS011;11809;56.390;-3.266;2023-11-19T06:54:04;0.52;;;0.30;;
23280;SDS011;11809;56.390;-3.266;2023-11-19T06:56:35;1.17;;;0.30;;
23280;SDS011;11809;56.390;-3.266;2023-11-19T06:59:06;0.52;;;0.40;;
23280;SDS011;11809;56.390;-3.266;2023-11-19T07:01:39;0.30;;;0.22;;
23280;SDS011;11809;56.390;-3.266;2023-11-19T07:04:10;0.80;;;0.45;;
23280;SDS011;11809;56.390;-3.266;2023-11-19T07:06:40;0.60;;;0.37;;
23280;SDS011;11809;56.390;-3.266;2023-11-19T07:09:11;1.23;;;0.40;;
23280;SDS011;11809;56.390;-3.266;2023-11-19T07:11:41;1.77;;;0.40;;
23280;SDS011;11809;56.390;-3.266;2023-11-19T07:14:12;0.55;;;0.32;;
23280;SDS011;11809;56.390;-3.266;2023-11-19T07:16:45;0.35;;;0.30;;
23280;SDS011;11809;56.390;-3.266;2023-11-19T07:19:17;0.43;;;0.30;;
23280;SDS011;11809;56.390;-3.266;2023-11-19T07:21:47;0.20;;;0.20;;
23280;SDS011;11809;56.390;-3.266;2023-11-19T07:24:17;1.17;;;0.40;;
23280;SDS011;11809;56.390;-3.266;2023-11-19T07:26:48;1.42;;;0.40;;
23280;SDS011;11809;56.390;-3.266;2023-11-19T07:29:19;0.38;;;0.30;;
23280;SDS011;11809;56.390;-3.266;2023-11-19T07:31:55;0.43;;;0.30;;
23280;SDS011;11809;56.390;-3.266;2023-11-19T07:34:28;0.55;;;0.30;;
23280;SDS011;11809;56.390;-3.266;2023-11-19T07:36:58;0.47;;;0.30;;
23280;SDS011;11809;56.390;-3.266;2023-11-19T07:39:29;0.43;;;0.22;;
23280;SDS011;11809;56.390;-3.266;2023-11-19T07:42:01;2.53;;;0.47;;
23280;SDS011;11809;56.390;-3.266;2023-11-19T07:44:31;1.67;;;0.40;;
23280;SDS011;11809;56.390;-3.266;2023-11-19T07:47:05;5.60;;;0.40;;
23280;SDS011;11809;56.390;-3.266;2023-11-19T07:49:35;1.75;;;0.40;;
23280;SDS011;11809;56.390;-3.266;2023-11-19T07:52:06;1.65;;;0.40;;
23280;SDS011;11809;56.390;-3.266;2023-11-19T07:54:39;1.65;;;0.30;;
23280;SDS011;11809;56.390;-3.266;2023-11-19T07:57:10;2.45;;;0.40;;
23280;SDS011;11809;56.390;-3.266;2023-11-19T07:59:41;2.85;;;0.60;;
23280;SDS011;11809;56.390;-3.266;2023-11-19T08:02:14;3.10;;;0.70;;
23280;SDS011;11809;56.390;-3.266;2023-11-19T08:04:45;2.17;;;0.50;;
23280;SDS011;11809;56.390;-3.266;2023-11-19T08:07:18;2.63;;;0.80;;
23280;SDS011;11809;56.390;-3.266;2023-11-19T08:09:49;2.20;;;0.50;;
23280;SDS011;11809;56.390;-3.266;2023-11-19T08:12:19;7.97;;;1.17;;
23280;SDS011;11809;56.390;-3.266;2023-11-19T08:14:50;4.78;;;0.70;;
23280;SDS011;11809;56.390;-3.266;2023-11-19T08:17:24;2.33;;;0.50;;
23280;SDS011;11809;56.390;-3.266;2023-11-19T08:19:55;3.08;;;0.73;;
23280;SDS011;11809;56.390;-3.266;2023-11-19T08:22:27;4.05;;;0.60;;
23280;SDS011;11809;56.390;-3.266;2023-11-19T08:24:57;1.05;;;0.47;;
23280;SDS011;11809;56.390;-3.266;2023-11-19T08:27:28;3.15;;;0.60;;
23280;SDS011;11809;56.390;-3.266;2023-11-19T08:29:59;3.20;;;0.57;;
23280;SDS011;11809;56.390;-3.266;2023-11-19T08:32:32;2.92;;;0.60;;
23280;SDS011;11809;56.390;-3.266;2023-11-19T08:35:03;4.03;;;0.57;;
23280;SDS011;11809;56.390;-3.266;2023-11-19T08:37:36;1.95;;;0.60;;
23280;SDS011;11809;56.390;-3.266;2023-11-19T08:40:07;0.77;;;0.50;;
23280;SDS011;11809;56.390;-3.266;2023-11-19T08:42:39;1.35;;;0.50;;
23280;SDS011;11809;56.390;-3.266;2023-11-19T08:45:09;2.55;;;0.70;;
23280;SDS011;11809;56.390;-3.266;2023-11-19T08:47:43;3.35;;;0.75;;
23280;SDS011;11809;56.390;-3.266;2023-11-19T08:50:13;3.65;;;0.70;;
23280;SDS011;11809;56.390;-3.266;2023-11-19T08:52:44;7.00;;;1.05;;
23280;SDS011;11809;56.390;-3.266;2023-11-19T08:55:14;3.13;;;1.00;;
23280;SDS011;11809;56.390;-3.266;2023-11-19T08:57:45;5.40;;;0.80;;
23280;SDS011;11809;56.390;-3.266;2023-11-19T09:00:15;4.73;;;0.70;;
23280;SDS011;11809;56.390;-3.266;2023-11-19T09:02:50;2.75;;;0.50;;
23280;SDS011;11809;56.390;-3.266;2023-11-19T09:05:21;2.97;;;0.60;;
23280;SDS011;11809;56.390;-3.266;2023-11-19T09:07:52;3.50;;;0.73;;
23280;SDS011;11809;56.390;-3.266;2023-11-19T09:10:23;3.30;;;0.68;;
23280;SDS011;11809;56.390;-3.266;2023-11-19T09:12:53;3.72;;;0.63;;
23280;SDS011;11809;56.390;-3.266;2023-11-19T09:15:24;5.18;;;0.75;;
23280;SDS011;11809;56.390;-3.266;2023-11-19T09:17:57;5.82;;;0.70;;
23280;SDS011;11809;56.390;-3.266;2023-11-19T09:20:28;4.35;;;0.70;;
23280;SDS011;11809;56.390;-3.266;2023-11-19T09:23:04;16.00;;;1.95;;
23280;SDS011;11809;56.390;-3.266;2023-11-19T09:25:36;9.35;;;1.05;;
23280;SDS011;11809;56.390;-3.266;2023-11-19T09:28:09;9.88;;;1.35;;
23280;SDS011;11809;56.390;-3.266;2023-11-19T09:30:41;9.07;;;1.17;;
23280;SDS011;11809;56.390;-3.266;2023-11-19T09:33:15;7.78;;;1.25;;
23280;SDS011;11809;56.390;-3.266;2023-11-19T09:35:46;12.98;;;1.42;;
23280;SDS011;11809;56.390;-3.266;2023-11-19T09:38:16;14.68;;;1.30;;
23280;SDS011;11809;56.390;-3.266;2023-11-19T09:40:47;9.75;;;1.20;;
23280;SDS011;11809;56.390;-3.266;2023-11-19T09:43:18;8.00;;;0.98;;
23280;SDS011;11809;56.390;-3.266;2023-11-19T09:45:50;4.90;;;1.08;;
23280;SDS011;11809;56.390;-3.266;2023-11-19T09:48:23;6.35;;;1.00;;
23280;SDS011;11809;56.390;-3.266;2023-11-19T09:50:55;6.25;;;0.80;;
23280;SDS011;11809;56.390;-3.266;2023-11-19T09:53:26;10.23;;;1.10;;
23280;SDS011;11809;56.390;-3.266;2023-11-19T09:55:57;5.40;;;0.98;;
23280;SDS011;11809;56.390;-3.266;2023-11-19T09:58:30;6.57;;;0.82;;
23280;SDS011;11809;56.390;-3.266;2023-11-19T10:03:39;6.13;;;1.13;;
23280;SDS011;11809;56.390;-3.266;2023-11-19T10:06:12;4.00;;;0.80;;
23280;SDS011;11809;56.390;-3.266;2023-11-19T10:08:46;4.65;;;0.90;;
23280;SDS011;11809;56.390;-3.266;2023-11-19T10:11:16;7.93;;;1.10;;
23280;SDS011;11809;56.390;-3.266;2023-11-19T10:13:47;10.40;;;1.40;;
23280;SDS011;11809;56.390;-3.266;2023-11-19T10:16:19;4.57;;;1.30;;
23280;SDS011;11809;56.390;-3.266;2023-11-19T10:21:23;5.43;;;0.82;;
23280;SDS011;11809;56.390;-3.266;2023-11-19T10:23:55;5.85;;;1.38;;
23280;SDS011;11809;56.390;-3.266;2023-11-19T10:26:27;7.40;;;1.13;;
23280;SDS011;11809;56.390;-3.266;2023-11-19T10:29:00;3.08;;;1.10;;
23280;SDS011;11809;56.390;-3.266;2023-11-19T10:31:31;5.22;;;0.80;;
23280;SDS011;11809;56.390;-3.266;2023-11-19T10:34:04;4.13;;;1.10;;
23280;SDS011;11809;56.390;-3.266;2023-11-19T10:36:54;6.32;;;0.98;;
23280;SDS011;11809;56.390;-3.266;2023-11-19T10:39:26;5.95;;;1.10;;
23280;SDS011;11809;56.390;-3.266;2023-11-19T10:42:18;2.67;;;0.80;;
23280;SDS011;11809;56.390;-3.266;2023-11-19T10:44:48;3.63;;;0.60;;
23280;SDS011;11809;56.390;-3.266;2023-11-19T10:47:19;4.20;;;1.08;;
23280;SDS011;11809;56.390;-3.266;2023-11-19T10:49:55;4.93;;;0.63;;
23280;SDS011;11809;56.390;-3.266;2023-11-19T10:52:26;2.50;;;0.77;;
23280;SDS011;11809;56.390;-3.266;2023-11-19T10:54:57;2.58;;;0.68;;
23280;SDS011;11809;56.390;-3.266;2023-11-19T10:57:31;2.42;;;0.85;;
23280;SDS011;11809;56.390;-3.266;2023-11-19T11:00:07;1.83;;;0.70;;
23280;SDS011;11809;56.390;-3.266;2023-11-19T11:02:41;2.63;;;0.68;;
23280;SDS011;11809;56.390;-3.266;2023-11-19T11:05:22;2.15;;;0.73;;
23280;SDS011;11809;56.390;-3.266;2023-11-19T11:07:55;2.42;;;0.60;;
23280;SDS011;11809;56.390;-3.266;2023-11-19T11:10:27;2.45;;;0.70;;
23280;SDS011;11809;56.390;-3.266;2023-11-19T11:13:01;2.63;;;0.93;;
23280;SDS011;11809;56.390;-3.266;2023-11-19T11:15:33;2.20;;;0.60;;
23280;SDS011;11809;56.390;-3.266;2023-11-19T11:18:04;1.67;;;0.60;;
23280;SDS011;11809;56.390;-3.266;2023-11-19T11:20:40;1.55;;;0.52;;
23280;SDS011;11809;56.390;-3.266;2023-11-19T11:26:17;2.40;;;0.55;;
23280;SDS011;11809;56.390;-3.266;2023-11-19T11:29:09;1.35;;;0.52;;
23280;SDS011;11809;56.390;-3.266;2023-11-19T11:31:47;2.70;;;0.80;;
23280;SDS011;11809;56.390;-3.266;2023-11-19T11:34:38;2.20;;;0.70;;
23280;SDS011;11809;56.390;-3.266;2023-11-19T11:37:21;1.17;;;0.60;;
23280;SDS011;11809;56.390;-3.266;2023-11-19T11:39:58;2.55;;;0.50;;
23280;SDS011;11809;56.390;-3.266;2023-11-19T11:42:33;1.75;;;0.60;;
23280;SDS011;11809;56.390;-3.266;2023-11-19T11:45:05;2.42;;;0.50;;
23280;SDS011;11809;56.390;-3.266;2023-11-19T11:50:49;1.05;;;0.40;;
23280;SDS011;11809;56.390;-3.266;2023-11-19T11:55:56;2.58;;;0.40;;
23280;SDS011;11809;56.390;-3.266;2023-11-19T11:58:31;5.57;;;0.70;;
23280;SDS011;11809;56.390;-3.266;2023-11-19T12:01:04;6.53;;;0.65;;
23280;SDS011;11809;56.390;-3.266;2023-11-19T12:03:37;5.57;;;0.50;;
23280;SDS011;11809;56.390;-3.266;2023-11-19T12:06:08;12.15;;;1.17;;
23280;SDS011;11809;56.390;-3.266;2023-11-19T12:08:41;25.60;;;1.30;;
23280;SDS011;11809;56.390;-3.266;2023-11-19T12:11:14;7.20;;;0.75;;
23280;SDS011;11809;56.390;-3.266;2023-11-19T12:13:47;3.47;;;0.70;;
23280;SDS011;11809;56.390;-3.266;2023-11-19T12:16:29;6.57;;;0.50;;
23280;SDS011;11809;56.390;-3.266;2023-11-19T12:19:04;9.85;;;0.90;;
23280;SDS011;11809;56.390;-3.266;2023-11-19T12:24:09;6.82;;;0.90;;
23280;SDS011;11809;56.390;-3.266;2023-11-19T12:26:41;3.88;;;0.52;;
23280;SDS011;11809;56.390;-3.266;2023-11-19T12:29:14;4.55;;;0.50;;
23280;SDS011;11809;56.390;-3.266;2023-11-19T12:31:53;3.53;;;0.65;;
23280;SDS011;11809;56.390;-3.266;2023-11-19T12:34:40;5.13;;;0.40;;
23280;SDS011;11809;56.390;-3.266;2023-11-19T12:37:11;4.78;;;0.60;;
23280;SDS011;11809;56.390;-3.266;2023-11-19T12:39:44;3.78;;;0.50;;
23280;SDS011;11809;56.390;-3.266;2023-11-19T12:42:16;8.40;;;1.00;;
23280;SDS011;11809;56.390;-3.266;2023-11-19T12:44:54;3.42;;;0.40;;
23280;SDS011;11809;56.390;-3.266;2023-11-19T12:47:25;3.55;;;0.45;;
23280;SDS011;11809;56.390;-3.266;2023-11-19T12:52:24;2.45;;;0.40;;
23280;SDS011;11809;56.390;-3.266;2023-11-19T12:54:57;2.55;;;0.60;;
23280;SDS011;11809;56.390;-3.266;2023-11-19T12:57:38;1.30;;;0.40;;
23280;SDS011;11809;56.390;-3.266;2023-11-19T13:00:18;1.23;;;0.40;;
23280;SDS011;11809;56.390;-3.266;2023-11-19T13:02:51;7.80;;;0.60;;
23280;SDS011;11809;56.390;-3.266;2023-11-19T13:05:23;3.60;;;0.65;;
23280;SDS011;11809;56.390;-3.266;2023-11-19T13:08:00;4.68;;;0.30;;
23280;SDS011;11809;56.390;-3.266;2023-11-19T13:10:49;2.53;;;0.30;;
23280;SDS011;11809;56.390;-3.266;2023-11-19T13:13:21;2.35;;;0.30;;
23280;SDS011;11809;56.390;-3.266;2023-11-19T13:15:51;1.40;;;0.20;;
23280;SDS011;11809;56.390;-3.266;2023-11-19T13:18:22;0.63;;;0.10;;
23280;SDS011;11809;56.390;-3.266;2023-11-19T13:21:10;2.47;;;0.20;;
23280;SDS011;11809;56.390;-3.266;2023-11-19T13:23:41;1.65;;;0.30;;
23280;SDS011;11809;56.390;-3.266;2023-11-19T13:28:45;0.82;;;0.20;;
23280;SDS011;11809;56.390;-3.266;2023-11-19T13:31:15;1.58;;;0.17;;
23280;SDS011;11809;56.390;-3.266;2023-11-19T13:33:46;0.40;;;0.20;;
23280;SDS011;11809;56.390;-3.266;2023-11-19T13:36:17;2.95;;;0.20;;
23280;SDS011;11809;56.390;-3.266;2023-11-19T13:38:47;0.55;;;0.20;;
23280;SDS011;11809;56.390;-3.266;2023-11-19T13:41:20;1.00;;;0.20;;
23280;SDS011;11809;56.390;-3.266;2023-11-19T13:43:52;0.22;;;0.20;;
23280;SDS011;11809;56.390;-3.266;2023-11-19T13:46:22;1.10;;;0.20;;
23280;SDS011;11809;56.390;-3.266;2023-11-19T13:48:53;0.93;;;0.20;;
23280;SDS011;11809;56.390;-3.266;2023-11-19T13:51:24;0.20;;;0.20;;
23280;SDS011;11809;56.390;-3.266;2023-11-19T13:53:54;0.20;;;0.20;;
23280;SDS011;11809;56.390;-3.266;2023-11-19T13:56:28;0.88;;;0.30;;
23280;SDS011;11809;56.390;-3.266;2023-11-19T13:58:58;0.65;;;0.20;;
23280;SDS011;11809;56.390;-3.266;2023-11-19T14:01:29;2.63;;;0.20;;
23280;SDS011;11809;56.390;-3.266;2023-11-19T14:04:00;1.05;;;0.20;;
23280;SDS011;11809;56.390;-3.266;2023-11-19T14:06:30;0.75;;;0.30;;
23280;SDS011;11809;56.390;-3.266;2023-11-19T14:09:01;0.22;;;0.20;;
23280;SDS011;11809;56.390;-3.266;2023-11-19T14:11:35;0.63;;;0.20;;
23280;SDS011;11809;56.390;-3.266;2023-11-19T14:14:06;1.45;;;0.32;;
23280;SDS011;11809;56.390;-3.266;2023-11-19T14:16:37;0.30;;;0.20;;
23280;SDS011;11809;56.390;-3.266;2023-11-19T14:19:08;0.82;;;0.30;;
23280;SDS011;11809;56.390;-3.266;2023-11-19T14:21:38;0.43;;;0.30;;
23280;SDS011;11809;56.390;-3.266;2023-11-19T14:24:08;11.07;;;0.40;;
23280;SDS011;11809;56.390;-3.266;2023-11-19T14:26:42;4.82;;;0.60;;
23280;SDS011;11809;56.390;-3.266;2023-11-19T14:29:16;2.50;;;0.30;;
23280;SDS011;11809;56.390;-3.266;2023-11-19T14:31:47;4.22;;;0.30;;
23280;SDS011;11809;56.390;-3.266;2023-11-19T14:34:17;1.70;;;0.30;;
23280;SDS011;11809;56.390;-3.266;2023-11-19T14:36:48;2.83;;;0.30;;
23280;SDS011;11809;56.390;-3.266;2023-11-19T14:39:19;2.72;;;0.30;;
23280;SDS011;11809;56.390;-3.266;2023-11-19T14:41:52;6.10;;;0.37;;
23280;SDS011;11809;56.390;-3.266;2023-11-19T14:44:25;7.07;;;0.45;;
23280;SDS011;11809;56.390;-3.266;2023-11-19T14:46:57;4.80;;;0.63;;
23280;SDS011;11809;56.390;-3.266;2023-11-19T14:49:29;3.33;;;0.38;;
23280;SDS011;11809;56.390;-3.266;2023-11-19T14:51:59;3.35;;;0.30;;
23280;SDS011;11809;56.390;-3.266;2023-11-19T14:54:33;3.55;;;0.60;;
23280;SDS011;11809;56.390;-3.266;2023-11-19T14:57:06;11.95;;;0.45;;
23280;SDS011;11809;56.390;-3.266;2023-11-19T14:59:37;3.65;;;0.22;;
23280;SDS011;11809;56.390;-3.266;2023-11-19T15:02:07;4.90;;;0.55;;
23280;SDS011;11809;56.390;-3.266;2023-11-19T15:04:38;3.80;;;0.43;;
23280;SDS011;11809;56.390;-3.266;2023-11-19T15:07:11;2.38;;;0.30;;
23280;SDS011;11809;56.390;-3.266;2023-11-19T15:09:41;2.75;;;0.30;;
23280;SDS011;11809;56.390;-3.266;2023-11-19T15:12:15;12.38;;;0.55;;
23280;SDS011;11809;56.390;-3.266;2023-11-19T15:14:45;1.85;;;0.22;;
23280;SDS011;11809;56.390;-3.266;2023-11-19T15:17:15;2.40;;;0.25;;
23280;SDS011;11809;56.390;-3.266;2023-11-19T15:19:48;0.65;;;0.30;;
23280;SDS011;11809;56.390;-3.266;2023-11-19T15:22:19;0.45;;;0.30;;
23280;SDS011;11809;56.390;-3.266;2023-11-19T15:24:49;2.65;;;0.22;;
23280;SDS011;11809;56.390;-3.266;2023-11-19T15:27:23;3.95;;;0.30;;
23280;SDS011;11809;56.390;-3.266;2023-11-19T15:29:53;0.60;;;0.20;;
23280;SDS011;11809;56.390;-3.266;2023-11-19T15:32:25;4.65;;;0.30;;
23280;SDS011;11809;56.390;-3.266;2023-11-19T15:34:58;1.27;;;0.20;;
23280;SDS011;11809;56.390;-3.266;2023-11-19T15:37:30;0.57;;;0.20;;